Pereira Barreto, Brazil
Current Conditions -  °F | °C
As of 5:25 AM on Sunday 23 Nov 2014 (Local Time) from SBDN Reporting Station
Broken Clouds Broken Clouds  
Wind Chill: 70°   Ceiling: 10000
Heat Index: 70°   Visibility: 6mi
Dew Point: 68°   Wind: 3mph
Humidity: 94%   Direction: 30°NNE
Pressure: 29.88"   Gusts: NA
Location:  20.63°S, 51.11°W
Report Text: SBDN 230725Z 03003KT 9999 FEW010 SCT060 BKN100 21/20 Q1012
Loading
Personal Weather Stations






























Interactive Weather Map New forecast layout! Learn more

10-Day Weather Forecast

Advertisements
Track Severe Weather on mobile